sensor_id;sensor_type;location;lat;lon;timestamp;noise_LAeq;noise_LA_min;noise_LA_max;noise_LA01;noise_LA95
71628;Laerm;59477;52.374;9.916;2023-04-03T00:00:13;43.72;40.10;49.36;;
71628;Laerm;59477;52.374;9.916;2023-04-03T00:02:14;57.31;40.57;67.92;;
71628;Laerm;59477;52.374;9.916;2023-04-03T00:04:15;43.15;39.31;50.95;;
71628;Laerm;59477;52.374;9.916;2023-04-03T00:06:15;49.75;39.47;58.46;;
71628;Laerm;59477;52.374;9.916;2023-04-03T00:08:16;44.69;40.16;55.52;;
71628;Laerm;59477;52.374;9.916;2023-04-03T00:10:16;43.30;39.81;45.89;;
71628;Laerm;59477;52.374;9.916;2023-04-03T00:12:17;43.83;40.30;48.18;;
71628;Laerm;59477;52.374;9.916;2023-04-03T00:14:17;44.94;41.21;50.73;;
71628;Laerm;59477;52.374;9.916;2023-04-03T00:16:18;50.83;41.82;60.53;;
71628;Laerm;59477;52.374;9.916;2023-04-03T00:18:19;44.12;40.96;49.40;;
71628;Laerm;59477;52.374;9.916;2023-04-03T00:20:19;43.09;39.73;46.53;;
71628;Laerm;59477;52.374;9.916;2023-04-03T00:22:20;43.60;40.06;50.01;;
71628;Laerm;59477;52.374;9.916;2023-04-03T00:24:39;54.11;40.96;65.83;;
71628;Laerm;59477;52.374;9.916;2023-04-03T00:26:39;44.04;40.95;49.00;;
71628;Laerm;59477;52.374;9.916;2023-04-03T00:28:59;46.93;40.60;56.43;;
71628;Laerm;59477;52.374;9.916;2023-04-03T00:31:18;55.40;42.45;65.89;;
71628;Laerm;59477;52.374;9.916;2023-04-03T00:33:18;44.69;41.58;50.07;;
71628;Laerm;59477;52.374;9.916;2023-04-03T00:35:22;52.91;40.69;66.17;;
71628;Laerm;59477;52.374;9.916;2023-04-03T00:37:23;49.81;42.16;55.35;;
71628;Laerm;59477;52.374;9.916;2023-04-03T00:39:23;45.23;42.35;51.44;;
71628;Laerm;59477;52.374;9.916;2023-04-03T00:41:24;44.52;40.50;49.32;;
71628;Laerm;59477;52.374;9.916;2023-04-03T00:43:44;44.38;40.63;49.33;;
71628;Laerm;59477;52.374;9.916;2023-04-03T00:45:46;44.59;41.42;50.39;;
71628;Laerm;59477;52.374;9.916;2023-04-03T00:47:47;51.22;42.13;61.94;;
71628;Laerm;59477;52.374;9.916;2023-04-03T00:49:48;45.06;41.64;52.91;;
71628;Laerm;59477;52.374;9.916;2023-04-03T00:51:49;52.97;44.00;60.74;;
71628;Laerm;59477;52.374;9.916;2023-04-03T00:54:09;45.42;41.48;51.12;;
71628;Laerm;59477;52.374;9.916;2023-04-03T00:56:10;44.45;40.96;50.70;;
71628;Laerm;59477;52.374;9.916;2023-04-03T00:58:12;46.34;41.39;52.65;;
71628;Laerm;59477;52.374;9.916;2023-04-03T01:00:16;45.05;40.93;55.73;;
71628;Laerm;59477;52.374;9.916;2023-04-03T01:02:17;48.53;41.74;57.30;;
71628;Laerm;59477;52.374;9.916;2023-04-03T01:04:32;43.37;40.26;47.49;;
71628;Laerm;59477;52.374;9.916;2023-04-03T01:06:34;43.93;40.84;47.22;;
71628;Laerm;59477;52.374;9.916;2023-04-03T01:08:36;49.51;41.53;59.78;;
71628;Laerm;59477;52.374;9.916;2023-04-03T01:10:55;55.62;40.15;69.43;;
71628;Laerm;59477;52.374;9.916;2023-04-03T01:12:55;51.87;44.77;63.35;;
71628;Laerm;59477;52.374;9.916;2023-04-03T01:14:57;46.57;42.95;50.85;;
71628;Laerm;59477;52.374;9.916;2023-04-03T01:16:58;45.50;41.22;49.92;;
71628;Laerm;59477;52.374;9.916;2023-04-03T01:18:59;54.35;43.29;63.21;;
71628;Laerm;59477;52.374;9.916;2023-04-03T01:23:29;47.54;41.42;53.07;;
71628;Laerm;59477;52.374;9.916;2023-04-03T01:25:52;47.21;42.65;57.35;;
71628;Laerm;59477;52.374;9.916;2023-04-03T01:27:56;46.67;42.51;52.63;;
71628;Laerm;59477;52.374;9.916;2023-04-03T01:29:57;46.67;43.11;51.82;;
71628;Laerm;59477;52.374;9.916;2023-04-03T01:31:58;55.94;42.82;66.43;;
71628;Laerm;59477;52.374;9.916;2023-04-03T01:34:00;54.83;41.53;68.96;;
71628;Laerm;59477;52.374;9.916;2023-04-03T01:36:01;46.29;41.26;52.31;;
71628;Laerm;59477;52.374;9.916;2023-04-03T01:38:02;46.38;42.50;50.47;;
71628;Laerm;59477;52.374;9.916;2023-04-03T01:40:03;46.16;42.58;51.62;;
71628;Laerm;59477;52.374;9.916;2023-04-03T01:42:04;46.07;43.02;49.55;;
71628;Laerm;59477;52.374;9.916;2023-04-03T01:44:04;46.31;42.98;51.46;;
71628;Laerm;59477;52.374;9.916;2023-04-03T01:46:05;57.85;43.54;69.28;;
71628;Laerm;59477;52.374;9.916;2023-04-03T01:48:05;47.72;44.18;52.27;;
71628;Laerm;59477;52.374;9.916;2023-04-03T01:50:06;54.82;44.46;73.16;;
71628;Laerm;59477;52.374;9.916;2023-04-03T01:52:25;55.15;43.90;66.15;;
71628;Laerm;59477;52.374;9.916;2023-04-03T01:54:26;46.46;42.83;52.76;;
71628;Laerm;59477;52.374;9.916;2023-04-03T01:56:26;47.60;43.85;54.69;;
71628;Laerm;59477;52.374;9.916;2023-04-03T01:58:27;46.61;42.75;50.65;;
71628;Laerm;59477;52.374;9.916;2023-04-03T02:00:31;48.30;44.07;53.94;;
71628;Laerm;59477;52.374;9.916;2023-04-03T02:02:34;54.74;43.24;64.24;;
71628;Laerm;59477;52.374;9.916;2023-04-03T02:04:53;46.41;42.53;52.54;;
71628;Laerm;59477;52.374;9.916;2023-04-03T02:06:55;46.57;42.74;52.62;;
71628;Laerm;59477;52.374;9.916;2023-04-03T02:08:55;47.01;43.32;50.81;;
71628;Laerm;59477;52.374;9.916;2023-04-03T02:10:56;46.34;42.66;50.33;;
71628;Laerm;59477;52.374;9.916;2023-04-03T02:12:56;45.93;41.88;49.29;;
71628;Laerm;59477;52.374;9.916;2023-04-03T02:14:57;45.58;42.22;50.87;;
71628;Laerm;59477;52.374;9.916;2023-04-03T02:16:57;46.44;42.92;51.89;;
71628;Laerm;59477;52.374;9.916;2023-04-03T02:18:58;46.62;43.39;50.98;;
71628;Laerm;59477;52.374;9.916;2023-04-03T02:21:17;47.93;44.04;52.57;;
71628;Laerm;59477;52.374;9.916;2023-04-03T02:23:17;58.35;46.34;67.72;;
71628;Laerm;59477;52.374;9.916;2023-04-03T02:25:18;46.89;42.86;50.43;;
71628;Laerm;59477;52.374;9.916;2023-04-03T02:27:19;47.51;43.83;52.06;;
71628;Laerm;59477;52.374;9.916;2023-04-03T02:29:19;46.78;42.67;50.97;;
71628;Laerm;59477;52.374;9.916;2023-04-03T02:31:20;53.52;43.77;62.35;;
71628;Laerm;59477;52.374;9.916;2023-04-03T02:33:21;53.48;44.69;63.53;;
71628;Laerm;59477;52.374;9.916;2023-04-03T02:35:28;47.86;44.38;52.63;;
71628;Laerm;59477;52.374;9.916;2023-04-03T02:37:28;47.16;44.18;51.16;;
71628;Laerm;59477;52.374;9.916;2023-04-03T02:39:29;47.44;43.97;53.81;;
71628;Laerm;59477;52.374;9.916;2023-04-03T02:41:29;48.88;44.74;55.55;;
71628;Laerm;59477;52.374;9.916;2023-04-03T02:43:35;47.11;42.83;50.86;;
71628;Laerm;59477;52.374;9.916;2023-04-03T02:45:36;47.34;43.22;52.18;;
71628;Laerm;59477;52.374;9.916;2023-04-03T02:47:55;47.18;43.89;51.39;;
71628;Laerm;59477;52.374;9.916;2023-04-03T02:50:13;47.74;44.24;52.23;;
71628;Laerm;59477;52.374;9.916;2023-04-03T02:52:34;54.24;45.02;62.95;;
71628;Laerm;59477;52.374;9.916;2023-04-03T02:54:35;47.97;44.88;52.43;;
71628;Laerm;59477;52.374;9.916;2023-04-03T02:56:35;48.72;44.51;54.06;;
71628;Laerm;59477;52.374;9.916;2023-04-03T02:58:54;49.52;44.69;60.08;;
71628;Laerm;59477;52.374;9.916;2023-04-03T03:00:55;53.60;44.77;61.37;;
71628;Laerm;59477;52.374;9.916;2023-04-03T03:02:55;48.48;44.40;54.00;;
71628;Laerm;59477;52.374;9.916;2023-04-03T03:04:56;49.17;44.97;53.76;;
71628;Laerm;59477;52.374;9.916;2023-04-03T03:06:56;53.82;44.49;65.51;;
71628;Laerm;59477;52.374;9.916;2023-04-03T03:09:15;48.67;44.43;55.79;;
71628;Laerm;59477;52.374;9.916;2023-04-03T03:11:34;48.88;45.40;57.09;;
71628;Laerm;59477;52.374;9.916;2023-04-03T03:13:34;50.60;46.58;57.14;;
71628;Laerm;59477;52.374;9.916;2023-04-03T03:15:35;49.22;45.57;53.38;;
71628;Laerm;59477;52.374;9.916;2023-04-03T03:17:35;48.96;45.37;53.48;;
71628;Laerm;59477;52.374;9.916;2023-04-03T03:19:36;52.12;45.93;62.97;;
71628;Laerm;59477;52.374;9.916;2023-04-03T03:21:55;55.72;45.80;66.83;;
71628;Laerm;59477;52.374;9.916;2023-04-03T03:23:57;49.90;45.66;56.40;;
71628;Laerm;59477;52.374;9.916;2023-04-03T03:25:58;49.12;45.06;53.71;;
71628;Laerm;59477;52.374;9.916;2023-04-03T03:28:00;49.77;44.89;55.99;;
71628;Laerm;59477;52.374;9.916;2023-04-03T03:30:19;60.55;45.90;70.10;;
71628;Laerm;59477;52.374;9.916;2023-04-03T03:32:19;50.42;45.41;56.35;;
71628;Laerm;59477;52.374;9.916;2023-04-03T03:34:20;54.55;49.02;59.74;;
71628;Laerm;59477;52.374;9.916;2023-04-03T03:36:21;51.82;48.36;57.50;;
71628;Laerm;59477;52.374;9.916;2023-04-03T03:38:40;50.80;45.90;55.77;;
71628;Laerm;59477;52.374;9.916;2023-04-03T03:40:40;53.09;46.96;61.03;;
71628;Laerm;59477;52.374;9.916;2023-04-03T03:42:41;52.75;46.35;59.13;;
71628;Laerm;59477;52.374;9.916;2023-04-03T03:44:42;51.23;47.71;56.23;;
71628;Laerm;59477;52.374;9.916;2023-04-03T03:46:42;51.51;46.94;56.47;;
71628;Laerm;59477;52.374;9.916;2023-04-03T03:48:43;54.98;47.56;64.57;;
71628;Laerm;59477;52.374;9.916;2023-04-03T03:50:43;53.62;46.77;61.85;;
71628;Laerm;59477;52.374;9.916;2023-04-03T03:52:44;54.28;47.42;61.66;;
71628;Laerm;59477;52.374;9.916;2023-04-03T03:54:45;50.95;46.98;58.19;;
71628;Laerm;59477;52.374;9.916;2023-04-03T03:56:45;56.82;48.58;65.55;;
71628;Laerm;59477;52.374;9.916;2023-04-03T03:58:46;50.76;47.45;54.94;;
71628;Laerm;59477;52.374;9.916;2023-04-03T04:00:47;51.63;47.62;58.32;;
71628;Laerm;59477;52.374;9.916;2023-04-03T04:02:47;56.53;48.44;70.84;;
71628;Laerm;59477;52.374;9.916;2023-04-03T04:05:06;54.11;47.49;64.90;;
71628;Laerm;59477;52.374;9.916;2023-04-03T04:07:25;50.38;45.76;57.42;;
71628;Laerm;59477;52.374;9.916;2023-04-03T04:09:28;50.12;45.44;56.91;;
71628;Laerm;59477;52.374;9.916;2023-04-03T04:11:28;50.66;46.61;55.50;;
71628;Laerm;59477;52.374;9.916;2023-04-03T04:13:48;52.43;48.05;59.02;;
71628;Laerm;59477;52.374;9.916;2023-04-03T04:15:48;50.70;46.70;56.59;;
71628;Laerm;59477;52.374;9.916;2023-04-03T04:17:49;51.38;46.05;56.22;;
71628;Laerm;59477;52.374;9.916;2023-04-03T04:19:49;58.43;49.25;71.07;;
71628;Laerm;59477;52.374;9.916;2023-04-03T04:21:50;51.07;46.98;56.36;;
71628;Laerm;59477;52.374;9.916;2023-04-03T04:23:51;52.88;47.61;58.42;;
71628;Laerm;59477;52.374;9.916;2023-04-03T04:25:57;52.57;47.06;65.11;;
71628;Laerm;59477;52.374;9.916;2023-04-03T04:28:07;55.87;48.56;67.40;;
71628;Laerm;59477;52.374;9.916;2023-04-03T04:30:26;52.02;47.27;56.85;;
71628;Laerm;59477;52.374;9.916;2023-04-03T04:32:46;51.36;45.94;58.53;;
71628;Laerm;59477;52.374;9.916;2023-04-03T04:34:51;56.63;47.47;69.12;;
71628;Laerm;59477;52.374;9.916;2023-04-03T04:36:52;58.50;47.68;69.49;;
71628;Laerm;59477;52.374;9.916;2023-04-03T04:39:11;52.02;46.96;60.59;;
71628;Laerm;59477;52.374;9.916;2023-04-03T04:41:11;55.69;49.00;65.43;;
71628;Laerm;59477;52.374;9.916;2023-04-03T04:43:12;60.79;48.50;72.40;;
71628;Laerm;59477;52.374;9.916;2023-04-03T04:45:15;55.17;48.31;66.40;;
71628;Laerm;59477;52.374;9.916;2023-04-03T04:47:15;53.40;45.78;65.09;;
71628;Laerm;59477;52.374;9.916;2023-04-03T04:49:16;53.39;47.67;59.49;;
71628;Laerm;59477;52.374;9.916;2023-04-03T04:51:17;52.77;48.72;58.14;;
71628;Laerm;59477;52.374;9.916;2023-04-03T04:53:17;58.65;48.44;69.37;;
71628;Laerm;59477;52.374;9.916;2023-04-03T04:55:21;52.64;46.70;57.94;;
71628;Laerm;59477;52.374;9.916;2023-04-03T04:57:22;52.66;47.95;58.77;;
71628;Laerm;59477;52.374;9.916;2023-04-03T04:59:22;52.36;45.92;62.96;;
71628;Laerm;59477;52.374;9.916;2023-04-03T05:01:23;52.02;47.07;65.34;;
71628;Laerm;59477;52.374;9.916;2023-04-03T05:03:23;53.15;47.35;61.76;;
71628;Laerm;59477;52.374;9.916;2023-04-03T05:05:24;55.73;47.04;77.10;;
71628;Laerm;59477;52.374;9.916;2023-04-03T05:07:24;54.89;48.82;68.40;;
71628;Laerm;59477;52.374;9.916;2023-04-03T05:09:43;55.91;47.81;84.48;;
71628;Laerm;59477;52.374;9.916;2023-04-03T05:12:02;51.81;47.68;63.42;;
71628;Laerm;59477;52.374;9.916;2023-04-03T05:14:22;53.25;47.78;64.69;;
71628;Laerm;59477;52.374;9.916;2023-04-03T05:16:22;52.17;48.05;57.50;;
71628;Laerm;59477;52.374;9.916;2023-04-03T05:18:23;51.84;48.11;57.46;;
71628;Laerm;59477;52.374;9.916;2023-04-03T05:20:23;56.20;48.70;77.67;;
71628;Laerm;59477;52.374;9.916;2023-04-03T05:22:24;56.48;48.61;67.46;;
71628;Laerm;59477;52.374;9.916;2023-04-03T05:24:24;53.74;47.92;69.30;;
71628;Laerm;59477;52.374;9.916;2023-04-03T05:26:26;52.41;47.98;65.11;;
71628;Laerm;59477;52.374;9.916;2023-04-03T05:28:27;50.64;46.89;56.59;;
71628;Laerm;59477;52.374;9.916;2023-04-03T05:30:27;52.17;47.02;57.95;;
71628;Laerm;59477;52.374;9.916;2023-04-03T05:32:46;51.61;47.51;56.52;;
71628;Laerm;59477;52.374;9.916;2023-04-03T05:35:05;52.47;47.82;60.21;;
71628;Laerm;59477;52.374;9.916;2023-04-03T05:37:06;51.11;47.34;56.01;;
71628;Laerm;59477;52.374;9.916;2023-04-03T05:39:07;52.29;47.65;57.31;;
71628;Laerm;59477;52.374;9.916;2023-04-03T05:41:08;51.80;48.14;57.25;;
71628;Laerm;59477;52.374;9.916;2023-04-03T05:43:27;53.68;48.29;65.64;;
71628;Laerm;59477;52.374;9.916;2023-04-03T05:45:47;52.74;48.87;59.12;;
71628;Laerm;59477;52.374;9.916;2023-04-03T05:47:48;53.16;49.22;59.04;;
71628;Laerm;59477;52.374;9.916;2023-04-03T05:49:48;52.71;48.49;58.09;;
71628;Laerm;59477;52.374;9.916;2023-04-03T05:51:49;52.70;49.00;60.07;;
71628;Laerm;59477;52.374;9.916;2023-04-03T05:53:50;55.57;49.93;64.91;;
71628;Laerm;59477;52.374;9.916;2023-04-03T05:55:53;52.65;47.38;61.04;;
71628;Laerm;59477;52.374;9.916;2023-04-03T05:57:54;53.63;49.24;61.84;;
71628;Laerm;59477;52.374;9.916;2023-04-03T05:59:54;52.92;48.32;62.29;;
71628;Laerm;59477;52.374;9.916;2023-04-03T06:01:55;54.57;48.43;64.21;;
71628;Laerm;59477;52.374;9.916;2023-04-03T06:03:56;55.24;50.43;63.15;;
71628;Laerm;59477;52.374;9.916;2023-04-03T06:05:58;53.55;49.38;60.26;;
71628;Laerm;59477;52.374;9.916;2023-04-03T06:07:59;52.33;48.33;60.99;;
71628;Laerm;59477;52.374;9.916;2023-04-03T06:10:18;54.08;48.78;60.56;;
71628;Laerm;59477;52.374;9.916;2023-04-03T06:12:20;55.78;48.90;62.59;;
71628;Laerm;59477;52.374;9.916;2023-04-03T06:14:21;53.66;49.20;63.72;;
71628;Laerm;59477;52.374;9.916;2023-04-03T06:16:21;53.32;49.57;58.75;;
71628;Laerm;59477;52.374;9.916;2023-04-03T06:18:22;56.05;50.13;63.67;;
71628;Laerm;59477;52.374;9.916;2023-04-03T06:20:23;56.25;49.63;62.43;;
71628;Laerm;59477;52.374;9.916;2023-04-03T06:22:24;52.85;48.68;56.64;;
71628;Laerm;59477;52.374;9.916;2023-04-03T06:24:44;52.26;48.64;58.21;;
71628;Laerm;59477;52.374;9.916;2023-04-03T06:26:45;51.69;48.19;56.65;;
71628;Laerm;59477;52.374;9.916;2023-04-03T06:28:46;54.49;49.63;64.30;;
71628;Laerm;59477;52.374;9.916;2023-04-03T06:31:05;53.81;48.48;59.72;;
71628;Laerm;59477;52.374;9.916;2023-04-03T06:33:05;51.83;47.65;56.91;;
71628;Laerm;59477;52.374;9.916;2023-04-03T06:35:06;51.90;47.03;58.23;;
71628;Laerm;59477;52.374;9.916;2023-04-03T06:37:10;52.94;47.86;65.13;;
71628;Laerm;59477;52.374;9.916;2023-04-03T06:39:29;55.20;49.03;78.08;;
71628;Laerm;59477;52.374;9.916;2023-04-03T06:41:30;55.10;47.72;66.78;;
71628;Laerm;59477;52.374;9.916;2023-04-03T06:43:31;55.87;47.81;68.68;;
71628;Laerm;59477;52.374;9.916;2023-04-03T06:45:32;53.34;46.92;61.36;;
71628;Laerm;59477;52.374;9.916;2023-04-03T06:47:33;51.10;46.50;57.83;;
71628;Laerm;59477;52.374;9.916;2023-04-03T06:49:52;51.92;48.27;59.62;;
71628;Laerm;59477;52.374;9.916;2023-04-03T06:51:52;51.96;47.45;59.78;;
71628;Laerm;59477;52.374;9.916;2023-04-03T06:53:55;50.88;46.39;59.06;;
71628;Laerm;59477;52.374;9.916;2023-04-03T06:55:56;50.33;46.89;57.73;;
71628;Laerm;59477;52.374;9.916;2023-04-03T06:57:56;50.07;46.03;55.06;;
71628;Laerm;59477;52.374;9.916;2023-04-03T06:59:57;49.25;45.36;55.17;;
71628;Laerm;59477;52.374;9.916;2023-04-03T07:01:57;48.87;45.06;60.77;;
71628;Laerm;59477;52.374;9.916;2023-04-03T07:04:00;56.62;44.90;86.65;;
71628;Laerm;59477;52.374;9.916;2023-04-03T07:06:00;48.16;44.32;57.15;;
71628;Laerm;59477;52.374;9.916;2023-04-03T07:08:02;48.41;43.74;57.50;;
71628;Laerm;59477;52.374;9.916;2023-04-03T07:10:21;47.12;43.56;56.65;;
71628;Laerm;59477;52.374;9.916;2023-04-03T07:12:22;50.55;43.51;61.10;;
71628;Laerm;59477;52.374;9.916;2023-04-03T07:14:22;48.90;42.86;59.23;;
71628;Laerm;59477;52.374;9.916;2023-04-03T07:16:23;51.68;44.17;60.61;;
71628;Laerm;59477;52.374;9.916;2023-04-03T07:18:42;46.04;42.24;56.83;;
71628;Laerm;59477;52.374;9.916;2023-04-03T07:20:43;48.67;43.80;59.49;;
71628;Laerm;59477;52.374;9.916;2023-04-03T07:22:45;47.63;43.62;58.04;;
71628;Laerm;59477;52.374;9.916;2023-04-03T07:25:04;55.07;44.15;64.17;;
71628;Laerm;59477;52.374;9.916;2023-04-03T07:27:25;50.11;41.17;60.54;;
71628;Laerm;59477;52.374;9.916;2023-04-03T07:29:26;45.64;40.75;53.94;;
71628;Laerm;59477;52.374;9.916;2023-04-03T07:31:26;53.16;44.30;60.78;;
71628;Laerm;59477;52.374;9.916;2023-04-03T07:33:46;47.83;41.46;55.40;;
71628;Laerm;59477;52.374;9.916;2023-04-03T07:35:46;55.79;42.47;67.48;;
71628;Laerm;59477;52.374;9.916;2023-04-03T07:37:47;46.28;41.65;59.43;;
71628;Laerm;59477;52.374;9.916;2023-04-03T07:39:48;46.40;41.69;54.98;;
71628;Laerm;59477;52.374;9.916;2023-04-03T07:41:49;46.28;41.50;55.60;;
71628;Laerm;59477;52.374;9.916;2023-04-03T07:44:08;52.13;41.47;64.54;;
71628;Laerm;59477;52.374;9.916;2023-04-03T07:46:28;51.93;42.83;60.97;;
71628;Laerm;59477;52.374;9.916;2023-04-03T07:48:47;53.44;42.66;63.22;;
71628;Laerm;59477;52.374;9.916;2023-04-03T07:50:47;47.57;41.72;58.10;;
71628;Laerm;59477;52.374;9.916;2023-04-03T07:52:48;51.66;42.53;64.80;;
71628;Laerm;59477;52.374;9.916;2023-04-03T07:54:51;51.99;43.21;64.09;;
71628;Laerm;59477;52.374;9.916;2023-04-03T07:56:51;53.91;44.00;67.05;;
71628;Laerm;59477;52.374;9.916;2023-04-03T07:58:52;49.58;40.54;65.56;;
71628;Laerm;59477;52.374;9.916;2023-04-03T08:01:12;47.75;41.81;62.55;;
71628;Laerm;59477;52.374;9.916;2023-04-03T08:03:30;50.07;42.96;60.36;;
71628;Laerm;59477;52.374;9.916;2023-04-03T08:05:31;53.71;43.84;65.50;;
71628;Laerm;59477;52.374;9.916;2023-04-03T08:07:32;47.49;42.44;59.83;;
71628;Laerm;59477;52.374;9.916;2023-04-03T08:09:32;55.92;42.81;64.21;;
71628;Laerm;59477;52.374;9.916;2023-04-03T08:11:33;50.43;44.88;61.14;;
71628;Laerm;59477;52.374;9.916;2023-04-03T08:13:34;50.44;44.66;60.84;;
71628;Laerm;59477;52.374;9.916;2023-04-03T08:15:35;51.48;42.27;64.29;;
71628;Laerm;59477;52.374;9.916;2023-04-03T08:17:55;53.82;44.93;71.12;;
71628;Laerm;59477;52.374;9.916;2023-04-03T08:20:14;51.79;43.40;68.93;;
71628;Laerm;59477;52.374;9.916;2023-04-03T08:22:14;49.08;43.44;62.86;;
71628;Laerm;59477;52.374;9.916;2023-04-03T08:24:34;47.42;41.33;58.53;;
71628;Laerm;59477;52.374;9.916;2023-04-03T08:26:35;48.16;42.33;59.88;;
71628;Laerm;59477;52.374;9.916;2023-04-03T08:28:54;51.25;43.99;67.54;;
71628;Laerm;59477;52.374;9.916;2023-04-03T08:30:55;48.59;41.25;62.50;;
71628;Laerm;59477;52.374;9.916;2023-04-03T08:33:14;49.13;40.68;62.06;;
71628;Laerm;59477;52.374;9.916;2023-04-03T08:35:15;46.95;41.18;61.22;;
71628;Laerm;59477;52.374;9.916;2023-04-03T08:37:16;50.82;42.45;66.37;;
71628;Laerm;59477;52.374;9.916;2023-04-03T08:39:17;52.44;42.35;69.83;;
71628;Laerm;59477;52.374;9.916;2023-04-03T08:41:37;52.96;42.60;73.71;;
71628;Laerm;59477;52.374;9.916;2023-04-03T08:50:07;50.82;43.56;63.94;;
71628;Laerm;59477;52.374;9.916;2023-04-03T08:52:12;53.57;42.27;67.23;;
71628;Laerm;59477;52.374;9.916;2023-04-03T08:54:37;50.16;41.61;63.05;;
71628;Laerm;59477;52.374;9.916;2023-04-03T08:56:36;47.71;41.56;56.90;;
71628;Laerm;59477;52.374;9.916;2023-04-03T08:58:41;47.19;41.20;58.08;;
71628;Laerm;59477;52.374;9.916;2023-04-03T09:00:51;48.59;41.73;62.99;;
71628;Laerm;59477;52.374;9.916;2023-04-03T09:03:12;45.50;40.44;51.92;;
71628;Laerm;59477;52.374;9.916;2023-04-03T09:05:16;50.11;42.11;64.97;;
71628;Laerm;59477;52.374;9.916;2023-04-03T09:07:20;48.62;41.20;63.14;;
71628;Laerm;59477;52.374;9.916;2023-04-03T09:16:25;46.85;40.80;61.55;;
71628;Laerm;59477;52.374;9.916;2023-04-03T09:18:47;48.43;41.97;64.12;;
71628;Laerm;59477;52.374;9.916;2023-04-03T09:20:54;48.58;41.15;60.77;;
71628;Laerm;59477;52.374;9.916;2023-04-03T09:23:19;51.35;42.17;66.12;;
71628;Laerm;59477;52.374;9.916;2023-04-03T09:25:22;48.62;41.08;57.05;;
71628;Laerm;59477;52.374;9.916;2023-04-03T09:27:23;46.41;41.51;56.35;;
71628;Laerm;59477;52.374;9.916;2023-04-03T09:29:24;46.73;41.51;54.59;;
71628;Laerm;59477;52.374;9.916;2023-04-03T09:31:36;46.77;41.25;55.59;;
71628;Laerm;59477;52.374;9.916;2023-04-03T09:33:37;52.33;41.00;68.93;;
71628;Laerm;59477;52.374;9.916;2023-04-03T09:35:56;47.03;41.49;62.42;;
71628;Laerm;59477;52.374;9.916;2023-04-03T09:40:27;47.03;42.31;58.32;;
71628;Laerm;59477;52.374;9.916;2023-04-03T09:42:28;50.40;42.10;62.20;;
71628;Laerm;59477;52.374;9.916;2023-04-03T09:44:36;50.29;40.83;69.57;;
71628;Laerm;59477;52.374;9.916;2023-04-03T09:46:37;47.52;41.43;62.96;;
71628;Laerm;59477;52.374;9.916;2023-04-03T09:48:39;55.24;42.61;63.57;;
71628;Laerm;59477;52.374;9.916;2023-04-03T09:52:55;46.96;41.41;65.51;;
71628;Laerm;59477;52.374;9.916;2023-04-03T09:54:58;54.56;43.21;62.45;;
71628;Laerm;59477;52.374;9.916;2023-04-03T09:57:11;48.15;41.97;64.21;;
71628;Laerm;59477;52.374;9.916;2023-04-03T09:59:13;50.09;40.51;69.00;;
71628;Laerm;59477;52.374;9.916;2023-04-03T10:03:40;52.25;42.00;68.97;;
71628;Laerm;59477;52.374;9.916;2023-04-03T10:06:09;54.14;42.54;71.63;;
71628;Laerm;59477;52.374;9.916;2023-04-03T10:08:23;55.58;45.30;71.85;;
71628;Laerm;59477;52.374;9.916;2023-04-03T10:10:24;51.34;42.81;67.15;;
71628;Laerm;59477;52.374;9.916;2023-04-03T10:12:44;53.74;41.31;79.57;;
71628;Laerm;59477;52.374;9.916;2023-04-03T10:15:00;54.57;44.36;76.22;;
71628;Laerm;59477;52.374;9.916;2023-04-03T10:19:43;55.38;45.22;70.86;;
71628;Laerm;59477;52.374;9.916;2023-04-03T10:22:09;51.89;43.53;66.38;;
71628;Laerm;59477;52.374;9.916;2023-04-03T10:24:14;51.84;42.26;71.66;;
71628;Laerm;59477;52.374;9.916;2023-04-03T10:26:22;48.47;42.23;62.08;;
71628;Laerm;59477;52.374;9.916;2023-04-03T10:30:34;52.23;42.85;68.24;;
71628;Laerm;59477;52.374;9.916;2023-04-03T10:32:44;50.79;42.91;65.29;;
71628;Laerm;59477;52.374;9.916;2023-04-03T10:34:48;50.78;43.41;64.97;;
71628;Laerm;59477;52.374;9.916;2023-04-03T10:46:31;46.63;41.95;60.17;;
71628;Laerm;59477;52.374;9.916;2023-04-03T10:48:43;49.16;41.81;70.12;;
71628;Laerm;59477;52.374;9.916;2023-04-03T10:52:55;50.85;43.32;64.39;;
71628;Laerm;59477;52.374;9.916;2023-04-03T10:55:24;49.98;42.48;66.79;;
71628;Laerm;59477;52.374;9.916;2023-04-03T10:57:18;46.90;40.67;60.36;;
71628;Laerm;59477;52.374;9.916;2023-04-03T10:59:25;48.40;41.43;57.75;;
71628;Laerm;59477;52.374;9.916;2023-04-03T11:01:31;50.22;43.13;59.31;;
71628;Laerm;59477;52.374;9.916;2023-04-03T11:03:38;51.95;40.69;62.86;;
71628;Laerm;59477;52.374;9.916;2023-04-03T11:06:01;47.42;39.89;59.56;;
71628;Laerm;59477;52.374;9.916;2023-04-03T11:08:03;47.84;42.61;56.42;;
71628;Laerm;59477;52.374;9.916;2023-04-03T11:10:18;49.13;42.01;63.03;;
71628;Laerm;59477;52.374;9.916;2023-04-03T11:12:29;55.07;42.27;65.03;;
71628;Laerm;59477;52.374;9.916;2023-04-03T11:14:35;49.10;42.25;66.19;;
71628;Laerm;59477;52.374;9.916;2023-04-03T11:16:38;51.60;41.21;61.56;;
71628;Laerm;59477;52.374;9.916;2023-04-03T11:18:49;48.18;42.94;62.53;;
71628;Laerm;59477;52.374;9.916;2023-04-03T11:21:00;51.40;41.97;61.55;;
71628;Laerm;59477;52.374;9.916;2023-04-03T11:23:06;48.80;40.39;62.30;;
71628;Laerm;59477;52.374;9.916;2023-04-03T11:27:30;49.78;41.70;62.00;;
71628;Laerm;59477;52.374;9.916;2023-04-03T11:29:35;45.73;39.84;63.99;;
71628;Laerm;59477;52.374;9.916;2023-04-03T11:33:59;47.04;42.00;58.72;;
71628;Laerm;59477;52.374;9.916;2023-04-03T11:36:28;49.34;43.30;63.02;;
71628;Laerm;59477;52.374;9.916;2023-04-03T11:38:31;51.38;42.92;66.99;;
71628;Laerm;59477;52.374;9.916;2023-04-03T11:40:36;50.62;43.32;65.31;;
71628;Laerm;59477;52.374;9.916;2023-04-03T11:42:41;48.56;43.58;64.91;;
71628;Laerm;59477;52.374;9.916;2023-04-03T11:47:44;50.59;42.22;72.84;;
71628;Laerm;59477;52.374;9.916;2023-04-03T11:52:01;52.43;41.35;63.61;;
71628;Laerm;59477;52.374;9.916;2023-04-03T11:56:58;46.38;39.39;56.08;;
71628;Laerm;59477;52.374;9.916;2023-04-03T12:01:07;44.68;40.21;53.41;;
71628;Laerm;59477;52.374;9.916;2023-04-03T12:05:28;51.16;42.32;68.95;;
71628;Laerm;59477;52.374;9.916;2023-04-03T12:07:29;48.85;41.57;63.02;;
71628;Laerm;59477;52.374;9.916;2023-04-03T12:11:34;48.97;41.68;69.96;;
71628;Laerm;59477;52.374;9.916;2023-04-03T12:15:49;51.01;41.94;64.31;;
71628;Laerm;59477;52.374;9.916;2023-04-03T12:17:51;52.87;43.32;72.10;;
71628;Laerm;59477;52.374;9.916;2023-04-03T12:19:52;53.07;42.37;70.82;;
71628;Laerm;59477;52.374;9.916;2023-04-03T12:24:00;50.97;41.61;67.17;;
71628;Laerm;59477;52.374;9.916;2023-04-03T12:26:24;48.10;42.13;60.35;;
71628;Laerm;59477;52.374;9.916;2023-04-03T12:28:45;55.46;42.75;73.14;;
71628;Laerm;59477;52.374;9.916;2023-04-03T12:30:47;49.71;43.50;62.85;;
71628;Laerm;59477;52.374;9.916;2023-04-03T12:33:22;48.59;41.61;61.71;;
71628;Laerm;59477;52.374;9.916;2023-04-03T12:40:15;48.59;41.83;57.18;;
71628;Laerm;59477;52.374;9.916;2023-04-03T12:42:23;46.00;40.93;53.05;;
71628;Laerm;59477;52.374;9.916;2023-04-03T12:46:58;49.24;42.13;61.42;;
71628;Laerm;59477;52.374;9.916;2023-04-03T12:48:59;50.87;41.18;63.40;;
71628;Laerm;59477;52.374;9.916;2023-04-03T12:51:00;50.71;41.16;59.40;;
71628;Laerm;59477;52.374;9.916;2023-04-03T12:53:04;47.96;40.79;60.61;;